createdAt,value
2022-12-25T00:01:17.591Z,33.04
2022-12-25T00:03:44.099Z,33.00
2022-12-25T00:06:10.328Z,33.09
2022-12-25T00:08:36.763Z,33.09
2022-12-25T00:11:03.105Z,33.12
2022-12-25T00:13:29.508Z,33.14
2022-12-25T00:15:55.958Z,33.12
2022-12-25T00:18:22.234Z,33.13
2022-12-25T00:20:48.583Z,33.14
2022-12-25T00:23:14.970Z,33.19
2022-12-25T00:25:41.316Z,33.11
2022-12-25T00:28:07.714Z,33.10
2022-12-25T00:30:34.053Z,33.12
2022-12-25T00:33:00.467Z,33.18
2022-12-25T00:35:26.854Z,33.19
2022-12-25T00:37:53.233Z,33.24
2022-12-25T00:40:21.550Z,33.20
2022-12-25T00:42:45.976Z,33.18
2022-12-25T00:45:12.323Z,33.18
2022-12-25T00:47:40.343Z,33.22
2022-12-25T00:50:05.036Z,33.23
2022-12-25T00:52:31.439Z,33.28
2022-12-25T00:54:57.797Z,33.20
2022-12-25T00:57:24.226Z,33.27
2022-12-25T00:59:50.572Z,33.30
2022-12-25T01:02:17.133Z,33.33
2022-12-25T01:04:43.336Z,33.35
2022-12-25T01:07:09.768Z,33.32
2022-12-25T01:09:36.116Z,33.30
2022-12-25T01:12:02.491Z,33.29
2022-12-25T01:14:28.834Z,33.31
2022-12-25T01:16:55.275Z,33.32
2022-12-25T01:19:21.579Z,33.29
2022-12-25T01:21:47.971Z,33.29
2022-12-25T01:24:14.340Z,33.38
2022-12-25T01:26:41.983Z,33.40
2022-12-25T01:29:07.102Z,33.37
2022-12-25T01:31:33.574Z,33.35
2022-12-25T01:33:59.915Z,33.39
2022-12-25T01:36:26.304Z,33.44
2022-12-25T01:38:52.706Z,33.42
2022-12-25T01:41:19.094Z,33.41
2022-12-25T01:43:45.464Z,33.40
2022-12-25T01:46:11.932Z,33.41
2022-12-25T01:48:38.234Z,33.42
2022-12-25T01:51:04.649Z,33.43
2022-12-25T01:53:32.359Z,33.44
2022-12-25T01:55:57.425Z,33.43
2022-12-25T01:58:23.767Z,33.48
2022-12-25T02:00:50.283Z,33.46
2022-12-25T02:03:16.562Z,33.49
2022-12-25T02:05:42.946Z,33.48
2022-12-25T02:08:09.368Z,33.52
2022-12-25T02:10:35.740Z,33.52
2022-12-25T02:13:02.088Z,33.54
2022-12-25T02:15:28.505Z,33.54
2022-12-25T02:17:54.872Z,33.54
2022-12-25T02:20:21.206Z,33.58
2022-12-25T02:22:47.638Z,33.61
2022-12-25T02:25:13.978Z,33.58
2022-12-25T02:27:40.413Z,33.61
2022-12-25T02:30:06.741Z,33.64
2022-12-25T02:32:33.181Z,33.65
2022-12-25T02:34:59.528Z,33.65
2022-12-25T02:37:25.915Z,33.68
2022-12-25T02:39:52.269Z,33.68
2022-12-25T02:42:18.652Z,33.70
2022-12-25T02:44:45.000Z,33.70
2022-12-25T02:47:11.422Z,33.67
2022-12-25T02:49:37.749Z,33.67
2022-12-25T02:52:04.139Z,33.72
2022-12-25T02:54:30.479Z,33.73
2022-12-25T02:56:56.900Z,33.73
2022-12-25T02:59:23.277Z,33.71
2022-12-25T03:01:49.843Z,33.72
2022-12-25T03:04:16.105Z,33.76
2022-12-25T03:06:42.486Z,33.70
2022-12-25T03:09:08.844Z,33.76
2022-12-25T03:11:35.255Z,33.75
2022-12-25T03:14:01.602Z,33.75
2022-12-25T03:16:28.020Z,33.78
2022-12-25T03:18:54.355Z,33.83
2022-12-25T03:21:20.753Z,34.02
2022-12-25T03:23:47.113Z,37.55
2022-12-25T03:26:13.513Z,37.87
2022-12-25T03:28:39.883Z,37.99
2022-12-25T03:31:06.327Z,38.02
2022-12-25T03:33:47.408Z,38.05
2022-12-25T03:35:59.014Z,38.08
2022-12-25T03:38:25.357Z,38.13
2022-12-25T03:40:51.745Z,38.14
2022-12-25T03:43:18.095Z,38.17
2022-12-25T03:45:44.520Z,38.18
2022-12-25T03:48:10.862Z,38.20
2022-12-25T03:50:37.293Z,38.21
2022-12-25T03:53:03.628Z,38.24
2022-12-25T03:55:30.044Z,38.22
2022-12-25T03:57:56.394Z,38.28
2022-12-25T04:00:22.791Z,38.28
2022-12-25T04:02:49.357Z,38.27
2022-12-25T04:05:15.541Z,38.29
2022-12-25T04:07:41.941Z,38.36
2022-12-25T04:10:08.310Z,38.41
2022-12-25T04:12:34.682Z,38.38
2022-12-25T04:15:01.088Z,38.45
2022-12-25T04:17:27.433Z,38.41
2022-12-25T04:19:53.812Z,38.47
2022-12-25T04:22:20.165Z,38.47
2022-12-25T04:24:46.552Z,38.44
2022-12-25T04:27:12.932Z,38.46
2022-12-25T04:29:39.313Z,38.46
2022-12-25T04:32:05.697Z,38.50
2022-12-25T04:34:32.106Z,38.52
2022-12-25T04:36:58.458Z,38.52
2022-12-25T04:39:24.873Z,38.57
2022-12-25T04:41:51.211Z,38.55
2022-12-25T04:44:17.621Z,38.60
2022-12-25T04:46:44.009Z,38.60
2022-12-25T04:49:10.344Z,38.64
2022-12-25T04:51:36.737Z,38.61
2022-12-25T04:54:03.136Z,38.66
2022-12-25T04:56:29.506Z,38.68
2022-12-25T04:58:55.923Z,38.63
2022-12-25T05:01:22.348Z,38.63
2022-12-25T05:03:48.685Z,38.61
2022-12-25T05:06:14.991Z,38.66
2022-12-25T05:08:41.395Z,38.67
2022-12-25T05:11:07.751Z,38.66
2022-12-25T05:13:34.179Z,38.67
2022-12-25T05:16:00.561Z,38.67
2022-12-25T05:18:26.942Z,38.69
2022-12-25T05:20:53.343Z,38.69
2022-12-25T05:23:19.667Z,38.69
2022-12-25T05:25:46.036Z,38.72
2022-12-25T05:28:12.437Z,38.67
2022-12-25T05:30:38.796Z,38.70
2022-12-25T05:33:05.203Z,38.70
2022-12-25T05:35:31.549Z,38.69
2022-12-25T05:37:57.964Z,38.68
2022-12-25T05:40:24.311Z,38.67
2022-12-25T05:42:50.698Z,38.69
2022-12-25T05:45:17.039Z,38.66
2022-12-25T05:47:43.451Z,38.69
2022-12-25T05:50:09.782Z,38.67
2022-12-25T05:52:36.164Z,38.68
2022-12-25T05:55:02.509Z,38.68
2022-12-25T05:57:28.914Z,38.69
2022-12-25T05:59:55.250Z,38.67
2022-12-25T06:02:21.803Z,38.69
2022-12-25T06:04:48.002Z,38.68
2022-12-25T06:07:14.421Z,38.68
2022-12-25T06:09:40.771Z,38.65
2022-12-25T06:12:08.653Z,37.08
2022-12-25T06:14:33.562Z,36.06
2022-12-25T06:16:59.986Z,35.61
2022-12-25T06:19:26.260Z,35.33
2022-12-25T06:21:52.646Z,35.15
2022-12-25T06:24:21.482Z,35.07
2022-12-25T06:26:45.398Z,34.96
2022-12-25T06:29:11.736Z,34.87
2022-12-25T06:31:38.160Z,34.83
2022-12-25T06:34:04.479Z,34.80
2022-12-25T06:36:30.893Z,34.79
2022-12-25T06:38:57.230Z,34.72
2022-12-25T06:41:23.625Z,34.71
2022-12-25T06:43:49.955Z,34.68
2022-12-25T06:46:16.463Z,34.64
2022-12-25T06:48:42.718Z,34.65
2022-12-25T06:51:10.119Z,34.65
2022-12-25T06:53:39.834Z,34.61
2022-12-25T06:56:01.904Z,34.63
2022-12-25T06:58:28.244Z,34.66
2022-12-25T07:00:54.687Z,34.55
2022-12-25T07:03:21.066Z,34.62
2022-12-25T07:05:47.411Z,34.61
2022-12-25T07:08:13.771Z,34.59
2022-12-25T07:10:40.151Z,34.62
2022-12-25T07:13:06.516Z,34.58
2022-12-25T07:15:32.890Z,34.59
2022-12-25T07:18:00.450Z,34.56
2022-12-25T07:20:25.609Z,34.58
2022-12-25T07:22:51.967Z,34.58
2022-12-25T07:25:18.349Z,34.61
2022-12-25T07:27:44.718Z,34.61
2022-12-25T07:30:11.113Z,34.58
2022-12-25T07:32:37.452Z,34.55
2022-12-25T07:35:03.845Z,34.56
2022-12-25T07:37:30.188Z,34.53
2022-12-25T07:39:56.585Z,34.50
2022-12-25T07:42:25.306Z,34.53
2022-12-25T07:44:49.321Z,34.50
2022-12-25T07:47:15.670Z,34.52
2022-12-25T07:49:42.058Z,34.54
2022-12-25T07:52:08.424Z,34.56
2022-12-25T07:54:34.825Z,34.49
2022-12-25T07:57:01.246Z,34.50
2022-12-25T07:59:27.632Z,34.59
2022-12-25T08:01:54.191Z,34.56
2022-12-25T08:04:20.524Z,34.58
2022-12-25T08:06:46.844Z,34.57
2022-12-25T08:09:13.250Z,34.55
2022-12-25T08:11:39.605Z,34.58
2022-12-25T08:14:06.012Z,34.54
2022-12-25T08:16:32.428Z,34.51
2022-12-25T08:18:58.776Z,34.51
2022-12-25T08:21:25.120Z,34.56
2022-12-25T08:23:51.595Z,34.55
2022-12-25T08:26:17.893Z,34.56
2022-12-25T08:28:44.275Z,34.57
2022-12-25T08:31:10.698Z,34.54
2022-12-25T08:33:38.554Z,34.55
2022-12-25T08:36:03.412Z,34.49
2022-12-25T08:38:29.804Z,34.46
2022-12-25T08:40:56.177Z,34.46
2022-12-25T08:43:22.590Z,34.43
2022-12-25T08:45:48.961Z,34.55
2022-12-25T08:48:15.307Z,34.55
2022-12-25T08:50:41.676Z,34.50
2022-12-25T08:53:08.074Z,34.49
2022-12-25T08:55:35.485Z,34.44
2022-12-25T08:58:00.849Z,34.48
2022-12-25T09:00:27.190Z,34.49
2022-12-25T09:02:53.667Z,34.45
2022-12-25T09:05:19.944Z,34.45
2022-12-25T09:07:46.328Z,34.40
2022-12-25T09:10:12.696Z,34.41
2022-12-25T09:12:39.086Z,34.43
2022-12-25T09:15:06.386Z,34.47
2022-12-25T09:17:31.907Z,34.45
2022-12-25T09:19:58.212Z,34.40
2022-12-25T09:22:25.820Z,34.37
2022-12-25T09:24:51.020Z,34.41
2022-12-25T09:27:17.376Z,34.40
2022-12-25T09:29:43.750Z,34.40
2022-12-25T09:32:10.178Z,34.48
2022-12-25T09:34:36.546Z,34.45
2022-12-25T09:37:02.942Z,34.45
2022-12-25T09:39:29.327Z,34.43
2022-12-25T09:41:55.741Z,34.46
2022-12-25T09:44:22.093Z,34.44
2022-12-25T09:46:48.537Z,34.48
2022-12-25T09:49:14.874Z,34.43
2022-12-25T09:51:41.242Z,34.41
2022-12-25T09:54:07.587Z,34.43
2022-12-25T09:56:33.994Z,34.40
2022-12-25T09:59:00.349Z,34.35
2022-12-25T10:01:26.796Z,34.31
2022-12-25T10:03:53.139Z,34.39
2022-12-25T10:06:19.497Z,34.35
2022-12-25T10:08:45.849Z,34.37
2022-12-25T10:11:12.242Z,34.25
2022-12-25T10:13:38.578Z,34.04
2022-12-25T10:16:05.064Z,33.81
2022-12-25T10:18:31.351Z,33.68
2022-12-25T10:20:57.766Z,33.63
2022-12-25T10:23:24.138Z,33.54
2022-12-25T10:25:50.525Z,33.41
2022-12-25T10:28:16.868Z,33.43
2022-12-25T10:30:43.302Z,33.53
2022-12-25T10:33:12.154Z,33.24
2022-12-25T10:35:35.983Z,33.09
2022-12-25T10:38:02.326Z,32.90
2022-12-25T10:40:28.726Z,32.78
2022-12-25T10:42:55.058Z,32.70
2022-12-25T10:45:21.442Z,32.59
2022-12-25T10:47:52.993Z,32.21
2022-12-25T10:50:14.203Z,32.14
2022-12-25T10:52:40.547Z,31.85
2022-12-25T10:55:06.933Z,31.78
2022-12-25T10:57:33.285Z,31.47
2022-12-25T10:59:59.708Z,31.28
2022-12-25T11:02:26.286Z,30.97
2022-12-25T11:04:52.432Z,30.79
2022-12-25T11:07:18.764Z,30.65
2022-12-25T11:09:45.176Z,30.50
2022-12-25T11:12:11.517Z,30.46
2022-12-25T11:14:37.937Z,30.21
2022-12-25T11:17:04.290Z,30.11
2022-12-25T11:19:30.684Z,30.08
2022-12-25T11:21:57.059Z,29.86
2022-12-25T11:24:24.906Z,29.78
2022-12-25T11:26:49.800Z,29.89
2022-12-25T11:29:16.180Z,29.77
2022-12-25T11:31:42.585Z,29.77
2022-12-25T11:34:08.910Z,29.67
2022-12-25T11:36:35.284Z,29.67
2022-12-25T11:39:01.675Z,29.74
2022-12-25T11:41:28.045Z,29.62
2022-12-25T11:43:54.445Z,29.56
2022-12-25T11:46:20.935Z,29.33
2022-12-25T11:48:47.171Z,29.37
2022-12-25T11:51:13.503Z,29.27
2022-12-25T11:53:39.936Z,29.17
2022-12-25T11:56:06.282Z,29.21
2022-12-25T11:58:32.662Z,28.66
2022-12-25T12:00:59.027Z,28.66
2022-12-25T12:03:25.619Z,28.61
2022-12-25T12:05:51.850Z,28.82
2022-12-25T12:08:18.229Z,28.59
2022-12-25T12:10:44.590Z,28.30
2022-12-25T12:13:10.957Z,28.00
2022-12-25T12:15:37.330Z,27.92
2022-12-25T12:18:03.717Z,27.94
2022-12-25T12:20:30.076Z,27.17
2022-12-25T12:22:56.501Z,27.83
2022-12-25T12:25:22.888Z,27.83
2022-12-25T12:27:49.238Z,27.59
2022-12-25T12:30:15.576Z,27.03
2022-12-25T12:32:42.012Z,27.15
2022-12-25T12:35:08.324Z,27.15
2022-12-25T12:37:34.742Z,26.67
2022-12-25T12:40:01.099Z,26.89
2022-12-25T12:42:27.495Z,26.79
2022-12-25T12:44:53.862Z,26.76
2022-12-25T12:47:20.201Z,26.65
2022-12-25T12:49:46.591Z,26.42
2022-12-25T12:52:12.922Z,26.37
2022-12-25T12:54:39.296Z,26.40
2022-12-25T12:57:05.639Z,26.54
2022-12-25T12:59:32.072Z,26.42
2022-12-25T13:01:58.593Z,26.46
2022-12-25T13:04:24.786Z,26.46
2022-12-25T13:06:51.115Z,26.31
2022-12-25T13:09:17.548Z,26.25
2022-12-25T13:11:43.920Z,26.40
2022-12-25T13:14:10.244Z,26.34
2022-12-25T13:16:36.631Z,26.33
2022-12-25T13:19:02.996Z,26.25
2022-12-25T13:21:29.365Z,26.25
2022-12-25T13:23:55.773Z,26.33
2022-12-25T13:26:22.124Z,26.36
2022-12-25T13:28:48.504Z,26.32
2022-12-25T13:31:14.875Z,26.38
2022-12-25T13:33:41.250Z,26.29
2022-12-25T13:36:07.589Z,26.27
2022-12-25T13:38:35.616Z,26.34
2022-12-25T13:41:00.302Z,26.26
2022-12-25T13:43:26.689Z,26.28
2022-12-25T13:45:53.074Z,26.23
2022-12-25T13:48:19.415Z,26.20
2022-12-25T13:50:45.751Z,26.22
2022-12-25T13:53:12.172Z,26.23
2022-12-25T13:55:38.492Z,26.17
2022-12-25T13:58:04.884Z,26.19
2022-12-25T14:00:31.246Z,26.21
2022-12-25T14:02:57.720Z,26.19
2022-12-25T14:05:23.964Z,26.17
2022-12-25T14:07:50.341Z,26.23
2022-12-25T14:10:16.679Z,26.29
2022-12-25T14:12:43.060Z,26.43
2022-12-25T14:15:09.399Z,26.40
2022-12-25T14:17:35.825Z,26.44
2022-12-25T14:20:08.020Z,26.51
2022-12-25T14:22:28.552Z,26.62
2022-12-25T14:24:54.989Z,26.60
2022-12-25T14:27:21.401Z,26.70
2022-12-25T14:29:47.775Z,26.84
2022-12-25T14:32:14.154Z,26.85
2022-12-25T14:34:40.531Z,26.87
2022-12-25T14:37:06.894Z,26.85
2022-12-25T14:39:33.266Z,26.91
2022-12-25T14:41:59.647Z,26.73
2022-12-25T14:44:26.011Z,26.81
2022-12-25T14:46:52.401Z,26.92
2022-12-25T14:49:18.781Z,26.88
2022-12-25T14:51:45.163Z,26.95
2022-12-25T14:54:11.493Z,26.97
2022-12-25T14:56:37.882Z,26.96
2022-12-25T14:59:04.258Z,26.91
2022-12-25T15:01:30.778Z,27.02
2022-12-25T15:03:57.057Z,27.00
2022-12-25T15:06:23.419Z,27.08
2022-12-25T15:08:49.730Z,27.19
2022-12-25T15:11:17.779Z,27.21
2022-12-25T15:13:42.473Z,27.38
2022-12-25T15:16:08.996Z,27.42
2022-12-25T15:18:35.286Z,27.27
2022-12-25T15:21:01.669Z,27.27
2022-12-25T15:23:27.988Z,27.43
2022-12-25T15:25:54.374Z,27.50
2022-12-25T15:28:20.762Z,27.51
2022-12-25T15:30:47.207Z,27.64
2022-12-25T15:33:13.499Z,27.75
2022-12-25T15:35:39.903Z,27.75
2022-12-25T15:38:06.247Z,27.78
2022-12-25T15:40:32.674Z,27.81
2022-12-25T15:42:59.871Z,27.91
2022-12-25T15:45:25.412Z,27.91
2022-12-25T15:47:51.743Z,27.97
2022-12-25T15:50:18.315Z,27.97
2022-12-25T15:52:44.715Z,28.09
2022-12-25T15:55:12.259Z,28.19
2022-12-25T15:57:37.393Z,28.23
2022-12-25T16:00:03.929Z,28.25
2022-12-25T16:02:30.494Z,28.33
2022-12-25T16:04:56.638Z,28.39
2022-12-25T16:07:23.006Z,28.60
2022-12-25T16:09:49.361Z,28.60
2022-12-25T16:12:15.713Z,28.55
2022-12-25T16:14:42.108Z,28.60
2022-12-25T16:17:09.625Z,28.67
2022-12-25T16:19:34.808Z,28.68
2022-12-25T16:22:01.189Z,28.93
2022-12-25T16:24:27.574Z,28.93
2022-12-25T16:26:53.948Z,28.96
2022-12-25T16:29:20.309Z,28.94
2022-12-25T16:31:46.809Z,28.99
2022-12-25T16:34:13.063Z,29.04
2022-12-25T16:36:39.440Z,29.06
2022-12-25T16:39:05.863Z,29.14
2022-12-25T16:41:32.219Z,29.14
2022-12-25T16:43:58.597Z,29.22
2022-12-25T16:46:25.047Z,29.26
2022-12-25T16:48:51.354Z,29.30
2022-12-25T16:51:17.731Z,29.33
2022-12-25T16:53:44.087Z,29.47
2022-12-25T16:56:10.428Z,29.56
2022-12-25T16:58:36.845Z,29.53
2022-12-25T17:01:03.188Z,29.58
2022-12-25T17:03:29.719Z,29.61
2022-12-25T17:05:55.948Z,29.64
2022-12-25T17:08:22.348Z,29.66
2022-12-25T17:10:48.691Z,29.70
2022-12-25T17:13:15.077Z,29.75
2022-12-25T17:15:45.254Z,29.86
2022-12-25T17:18:07.802Z,29.84
2022-12-25T17:20:34.181Z,29.85
2022-12-25T17:23:01.844Z,29.90
2022-12-25T17:25:26.900Z,29.91
2022-12-25T17:27:53.334Z,30.00
2022-12-25T17:30:19.675Z,30.08
2022-12-25T17:32:46.066Z,30.12
2022-12-25T17:35:12.441Z,30.11
2022-12-25T17:37:38.848Z,30.14
2022-12-25T17:40:05.182Z,30.26
2022-12-25T17:42:33.915Z,30.30
2022-12-25T17:45:00.298Z,30.32
2022-12-25T17:47:26.678Z,30.33
2022-12-25T17:49:53.079Z,30.32
2022-12-25T17:52:19.474Z,30.40
2022-12-25T17:54:45.802Z,30.32
2022-12-25T17:57:12.218Z,30.30
2022-12-25T17:59:38.593Z,30.46
2022-12-25T18:02:05.115Z,30.54
2022-12-25T18:04:31.432Z,30.51
2022-12-25T18:06:57.851Z,30.46
2022-12-25T18:09:24.206Z,30.54
2022-12-25T18:11:51.992Z,30.60
2022-12-25T18:14:16.934Z,30.57
2022-12-25T18:16:43.394Z,30.61
2022-12-25T18:19:09.677Z,30.71
2022-12-25T18:21:36.133Z,30.73
2022-12-25T18:24:02.510Z,30.72
2022-12-25T18:26:29.026Z,30.73
2022-12-25T18:28:55.300Z,30.77
2022-12-25T18:31:21.829Z,30.77
2022-12-25T18:33:49.314Z,30.86
2022-12-25T18:36:14.474Z,30.87
2022-12-25T18:38:40.835Z,30.92
2022-12-25T18:41:07.228Z,30.99
2022-12-25T18:43:52.749Z,30.99
2022-12-25T18:46:00.139Z,30.90
2022-12-25T18:48:26.366Z,31.05
2022-12-25T18:50:52.765Z,31.06
2022-12-25T18:53:19.104Z,31.09
2022-12-25T18:55:45.517Z,31.12
2022-12-25T18:58:11.867Z,31.12
2022-12-25T19:00:38.313Z,31.09
2022-12-25T19:03:04.836Z,31.11
2022-12-25T19:05:31.008Z,31.17
2022-12-25T19:07:58.407Z,31.29
2022-12-25T19:10:23.786Z,31.28
2022-12-25T19:12:50.190Z,31.33
2022-12-25T19:15:16.567Z,31.42
2022-12-25T19:17:42.923Z,31.44
2022-12-25T19:20:09.374Z,31.46
2022-12-25T19:22:35.692Z,31.53
2022-12-25T19:25:02.120Z,31.50
2022-12-25T19:27:28.475Z,31.58
2022-12-25T19:29:54.863Z,31.56
2022-12-25T19:32:21.247Z,31.58
2022-12-25T19:34:47.648Z,31.56
2022-12-25T19:37:13.996Z,31.59
2022-12-25T19:39:40.387Z,31.67
2022-12-25T19:42:06.739Z,31.71
2022-12-25T19:44:33.124Z,31.74
2022-12-25T19:46:59.460Z,31.71
2022-12-25T19:49:25.895Z,31.79
2022-12-25T19:51:52.269Z,31.83
2022-12-25T19:54:18.647Z,31.87
2022-12-25T19:56:45.035Z,31.79
2022-12-25T19:59:11.474Z,31.84
2022-12-25T20:01:37.906Z,31.88
2022-12-25T20:04:04.251Z,31.83
2022-12-25T20:06:30.602Z,31.90
2022-12-25T20:08:56.992Z,31.94
2022-12-25T20:11:23.348Z,32.00
2022-12-25T20:13:49.746Z,31.97
2022-12-25T20:16:16.123Z,31.95
2022-12-25T20:18:42.514Z,32.04
2022-12-25T20:21:08.867Z,32.04
2022-12-25T20:23:35.241Z,32.08
2022-12-25T20:26:01.612Z,32.15
2022-12-25T20:28:28.017Z,32.12
2022-12-25T20:30:54.375Z,32.12
2022-12-25T20:33:20.760Z,32.12
2022-12-25T20:35:47.140Z,32.17
2022-12-25T20:38:13.567Z,32.17
2022-12-25T20:41:08.163Z,32.23
2022-12-25T20:43:06.295Z,32.25
2022-12-25T20:45:32.666Z,32.26
2022-12-25T20:47:59.039Z,32.30
2022-12-25T20:50:25.386Z,32.27
2022-12-25T20:52:52.816Z,32.30
2022-12-25T20:55:18.142Z,32.32
2022-12-25T20:57:44.557Z,32.31
2022-12-25T21:00:10.910Z,32.33
2022-12-25T21:02:37.542Z,32.47
2022-12-25T21:05:03.671Z,32.40
2022-12-25T21:07:30.077Z,32.44
2022-12-25T21:09:56.412Z,32.43
2022-12-25T21:12:22.873Z,32.45
2022-12-25T21:14:49.172Z,32.53
2022-12-25T21:17:15.614Z,32.55
2022-12-25T21:19:41.941Z,32.54
2022-12-25T21:22:08.333Z,32.53
2022-12-25T21:24:34.715Z,32.58
2022-12-25T21:27:01.064Z,32.57
2022-12-25T21:29:27.420Z,32.65
2022-12-25T21:31:53.818Z,32.66
2022-12-25T21:34:20.186Z,32.69
2022-12-25T21:36:46.580Z,32.70
2022-12-25T21:39:12.923Z,32.71
2022-12-25T21:41:39.355Z,32.72
2022-12-25T21:44:05.721Z,32.78
2022-12-25T21:46:32.153Z,32.80
2022-12-25T21:48:58.461Z,32.80
2022-12-25T21:51:24.859Z,32.88
2022-12-25T21:53:51.191Z,32.89
2022-12-25T21:56:17.609Z,32.91
2022-12-25T21:58:43.945Z,32.93
2022-12-25T22:01:10.382Z,32.92
2022-12-25T22:03:36.805Z,32.93
2022-12-25T22:06:03.087Z,32.98
2022-12-25T22:08:29.457Z,33.04
2022-12-25T22:10:55.840Z,33.08
2022-12-25T22:13:22.262Z,33.04
2022-12-25T22:15:48.625Z,33.08
2022-12-25T22:18:14.924Z,33.07
2022-12-25T22:20:41.337Z,33.11
2022-12-25T22:23:07.702Z,33.13
2022-12-25T22:25:34.116Z,33.12
2022-12-25T22:28:00.560Z,33.14
2022-12-25T22:30:26.848Z,33.12
2022-12-25T22:32:53.178Z,33.19
2022-12-25T22:35:19.598Z,33.22
2022-12-25T22:37:45.940Z,33.27
2022-12-25T22:40:12.393Z,33.23
2022-12-25T22:42:38.733Z,33.26
2022-12-25T22:45:05.157Z,33.25
2022-12-25T22:47:31.541Z,33.29
2022-12-25T22:49:57.894Z,33.35
2022-12-25T22:52:24.266Z,36.80
2022-12-25T22:54:50.665Z,37.50
2022-12-25T22:57:17.028Z,37.65
2022-12-25T22:59:43.423Z,37.72
2022-12-25T23:02:09.950Z,37.74
2022-12-25T23:04:36.184Z,37.76
2022-12-25T23:07:02.577Z,37.81
2022-12-25T23:09:28.896Z,37.82
2022-12-25T23:11:55.309Z,37.83
2022-12-25T23:14:21.648Z,37.85
2022-12-25T23:16:48.046Z,37.88
2022-12-25T23:19:14.390Z,37.88
2022-12-25T23:21:40.808Z,37.91
2022-12-25T23:24:07.178Z,37.96
2022-12-25T23:26:33.574Z,38.02
2022-12-25T23:28:59.924Z,37.97
2022-12-25T23:31:26.346Z,37.97
2022-12-25T23:33:52.707Z,37.98
2022-12-25T23:36:19.065Z,37.91
2022-12-25T23:38:45.407Z,37.94
2022-12-25T23:41:11.826Z,37.91
2022-12-25T23:43:39.376Z,37.89
2022-12-25T23:46:04.635Z,37.94
2022-12-25T23:48:30.912Z,37.95
2022-12-25T23:50:57.308Z,37.97
2022-12-25T23:53:23.646Z,37.97
2022-12-25T23:55:55.365Z,38.00
2022-12-25T23:58:16.402Z,38.01
